• Join FlightAware (Why Join?)
  • Login
  • US Flag 
09:26AM EST


 

Airport Tracker/Info


-or-


 

Live Flight TrackerFlight Track Log ✈ VNR160 ✈ 29-Apr-2013 ✈ KSDL - KTRM

Flight Track Log - Related Links

Times and Time Zones

All times are in EDT time to prevent confusion due to time zone crossing. See the VNR160 flight status page for this flight to view local times or setup timezone preferences in your user account.

Time Position Orientation Groundspeed Altitude Reporting Facility
EDT Latitude Longitude Course Direction KTS MPH feet Rate Location/Type
01:05PM 33.6000 -111.9333 301° West 170 196 2,300  Level Phoenix TRACON
01:06PM 33.6333 -112.0000 301° West 173 199 5,800 2,280 Climbing Phoenix TRACON
01:07PM 33.6358 -112.0286 276° West 176 203 6,600 1,920 Climbing Albuquerque Center
01:08PM 33.6581 -112.0861 295° West 188 216 8,700 2,280 Climbing Albuquerque Center
01:09PM 33.6572 -112.1517 269° West 207 238 11,400 1,980 Climbing Albuquerque Center
01:10PM 33.6367 -112.2214 251° West 220 253 12,900 720 Climbing Albuquerque Center
01:11PM 33.6089 -112.3089 249° West 276 318 13,000  Climbing Albuquerque Center
01:12PM 33.5794 -112.4069 250° West 310 357 13,000  Level Albuquerque Center
01:13PM 33.5497 -112.5067 250° West 317 365 13,000 960 Level Albuquerque Center
01:14PM 33.5186 -112.6056 249° West 284 327 15,000 1,740 Climbing Albuquerque Center
01:15PM 33.4925 -112.6942 251° West 281 323 16,600 1,740 Climbing Albuquerque Center
01:16PM 33.4600 -112.7986 250° West 280 322 18,700 1,620 Climbing Albuquerque Center
01:17PM 33.4597 -112.8900 270° West 278 320 20,000 540 Climbing Albuquerque Center
01:18PM 33.4681 -112.9950 275° West 306 352 19,900  Descending Albuquerque Center
01:19PM 33.4764 -113.1078 275° West 331 381 20,000  Climbing Albuquerque Center
01:20PM 33.4856 -113.2228 275° West 344 396 20,000  Level Albuquerque Center
01:21PM 33.4964 -113.3622 275° West 350 403 20,000  Level Albuquerque Center
01:22PM 33.5058 -113.4767 276° West 348 400 20,000  Level Albuquerque Center
01:23PM 33.5144 -113.5925 275° West 349 402 20,000  Level Albuquerque Center
01:24PM 33.5228 -113.7078 275° West 349 402 20,000  Level Albuquerque Center
01:25PM 33.5314 -113.8225 275° West 348 400 20,000  Level Albuquerque Center
01:26PM 33.5403 -113.9367 275° West 347 399 20,000  Level Albuquerque Center
01:27PM 33.5506 -114.0750 275° West 348 400 20,000  Level Albuquerque Center
01:28PM 33.5581 -114.1894 275° West 347 399 20,000  Level Albuquerque Center
01:29PM 33.5644 -114.3053 274° West 348 400 20,000  Level Albuquerque Center
01:30PM 33.5744 -114.4194 276° West 347 399 20,000  Level Albuquerque Center
01:31PM 33.5822 -114.5344 275° West 347 399 20,000  Level Albuquerque Center
01:33PM 33.5897 -114.6539 274° West 346 398 20,000  Level Los Angeles Center
01:34PM 33.6131 -114.8103 280° West 341 392 20,000  Level Los Angeles Center
01:35PM 33.6414 -114.8947 292° West 341 392 20,000  Level Los Angeles Center
01:36PM 33.6831 -115.0217 292° West 342 394 20,000  Level Los Angeles Center
01:37PM 33.7169 -115.1272 291° West 341 392 20,000 -300 Level Los Angeles Center
01:38PM 33.7528 -115.2331 292° West 343 395 19,400 -1,380 Descending Los Angeles Center
01:39PM 33.8003 -115.3806 291° West 341 392 17,000 -2,040 Descending Los Angeles Center
01:40PM 33.8336 -115.4836 291° West 336 387 15,300 -1,680 Descending Los Angeles Center
01:41PM 33.8661 -115.5853 291° West 328 377 13,600 -1,680 Descending Los Angeles Center
01:42PM 33.8997 -115.6850 292° West 326 375 11,900 -1,680 Descending Los Angeles Center
01:43PM 33.9136 -115.7800 280° West 319 367 10,200 -1,140 Descending Los Angeles Center
01:45PM 33.9011 -115.8969 263° West 305 351 9,400 -1,020 Descending Los Angeles Center
01:46PM 33.8294 -115.9678 219° Southwest 282 325 8,000 -1,260 Descending Los Angeles Center
01:47PM 33.7858 -116.0367 233° Southwest 266 306 6,800 -900 Descending Los Angeles Center
01:48PM 33.7564 -116.0936 238° Southwest 249 287 6,200 -600 Descending Los Angeles Center